Time;durP1;ratioP1;P1;durP2;ratioP2;P2;SDS_P1;SDS_P2;PMS_P1;PMS_P2;Temp;Humidity;BMP_temperature;BMP_pressure;BME280_temperature;BME280_humidity;BME280_pressure;Samples;Min_cycle;Max_cycle;Signal;HPM_P1;HPM_P2
2023/07/03 06:07:43;;;;;;;4.72;3.83;;;;;;;;;;10182538;27;20383;-54
2023/07/03 06:12:35;;;;;;;6.35;3.78;;;;;;;;;;10174914;28;20127;-54
2023/07/03 06:17:28;;;;;;;4.63;4.22;;;;;;;;;;10178177;28;20051;-55
2023/07/03 06:22:21;;;;;;;4.30;3.90;;;;;;;;;;10178203;28;20251;-55
2023/07/03 06:27:13;;;;;;;4.30;3.90;;;;;;;;;;10182081;28;20040;-54
2023/07/03 06:32:06;;;;;;;4.05;3.65;;;;;;;;;;10181857;28;20056;-54
2023/07/03 06:37:00;;;;;;;3.78;3.45;;;;;;;;;;10182190;28;20051;-53
2023/07/03 06:41:52;;;;;;;4.18;3.78;;;;;;;;;;10181757;28;20408;-55
2023/07/03 06:46:44;;;;;;;4.80;3.83;;;;;;;;;;10181217;28;20052;-54
2023/07/03 06:51:36;;;;;;;4.72;3.90;;;;;;;;;;10181599;28;20040;-54
2023/07/03 06:56:29;;;;;;;3.78;3.40;;;;;;;;;;10181529;28;20438;-55
2023/07/03 07:01:25;;;;;;;3.15;2.85;;;;;;;;;;10180594;28;20052;-54
2023/07/03 07:06:25;;;;;;;5.18;4.68;;;;;;;;;;10180847;28;20052;-54
2023/07/03 07:11:22;;;;;;;4.05;3.65;;;;;;;;;;10180019;28;20075;-55
2023/07/03 07:16:19;;;;;;;3.92;3.63;;;;;;;;;;10169627;28;20052;-54
2023/07/03 07:21:11;;;;;;;3.35;2.90;;;;;;;;;;10153019;28;20045;-54
2023/07/03 07:26:03;;;;;;;3.83;3.53;;;;;;;;;;10152764;28;20041;-55
2023/07/03 07:30:55;;;;;;;3.90;3.50;;;;;;;;;;10152878;28;20053;-55
2023/07/03 07:35:47;;;;;;;4.70;3.28;;;;;;;;;;10152881;28;20060;-54
2023/07/03 07:40:39;;;;;;;3.83;3.38;;;;;;;;;;10152299;28;20044;-55
2023/07/03 07:45:32;;;;;;;3.58;3.28;;;;;;;;;;10152572;28;20098;-55
2023/07/03 07:50:24;;;;;;;5.45;3.20;;;;;;;;;;10152216;28;20045;-55
2023/07/03 07:55:17;;;;;;;3.80;3.50;;;;;;;;;;10150987;28;20133;-55
2023/07/03 08:00:10;;;;;;;3.47;3.17;;;;;;;;;;10151811;28;20412;-55
2023/07/03 08:05:05;;;;;;;3.50;3.20;;;;;;;;;;10132792;28;20144;-54
2023/07/03 08:09:58;;;;;;;3.65;3.28;;;;;;;;;;10110914;28;20049;-55
2023/07/03 08:14:50;;;;;;;3.60;3.30;;;;;;;;;;10109912;28;20103;-55
2023/07/03 08:19:42;;;;;;;3.60;3.20;;;;;;;;;;10110533;28;20064;-54
2023/07/03 08:24:33;;;;;;;3.30;3.00;;;;;;;;;;10110771;28;20458;-55
2023/07/03 08:29:25;;;;;;;3.92;3.60;;;;;;;;;;10109525;28;20132;-54
2023/07/03 08:34:18;;;;;;;2.90;2.60;;;;;;;;;;10110435;28;20128;-55
2023/07/03 08:39:09;;;;;;;3.58;3.28;;;;;;;;;;10110063;28;20149;-54
2023/07/03 08:44:01;;;;;;;3.47;3.17;;;;;;;;;;10109996;28;20474;-55
2023/07/03 08:48:56;;;;;;;4.10;3.70;;;;;;;;;;10108478;28;20041;-53
2023/07/03 08:53:52;;;;;;;3.63;3.00;;;;;;;;;;10107831;28;20049;-53
2023/07/03 08:58:44;;;;;;;3.50;3.20;;;;;;;;;;10109177;28;20041;-53
2023/07/03 09:03:55;;;;;;;3.47;3.17;;;;;;;;;;10108953;28;20049;-55
2023/07/03 09:09:07;;;;;;;2.67;2.47;;;;;;;;;;10108606;28;20127;-54
2023/07/03 09:14:00;;;;;;;2.80;2.60;;;;;;;;;;10108936;28;20159;-53
2023/07/03 09:19:20;;;;;;;3.28;2.97;;;;;;;;;;10087199;28;20051;-54
2023/07/03 09:24:16;;;;;;;3.83;3.42;;;;;;;;;;10067476;28;20087;-55
2023/07/03 09:29:10;;;;;;;3.03;2.83;;;;;;;;;;10067322;28;20045;-54
2023/07/03 09:34:02;;;;;;;3.95;3.60;;;;;;;;;;10067443;28;20119;-55
2023/07/03 09:38:54;;;;;;;3.42;2.85;;;;;;;;;;10067659;28;20045;-53
2023/07/03 09:43:45;;;;;;;4.15;3.58;;;;;;;;;;10067796;28;20466;-55
2023/07/03 09:48:38;;;;;;;3.20;3.00;;;;;;;;;;10068183;28;20049;-55
2023/07/03 09:53:30;;;;;;;3.28;3.00;;;;;;;;;;10066647;28;20046;-54
2023/07/03 09:58:24;;;;;;;3.50;3.20;;;;;;;;;;10068003;28;20061;-55
2023/07/03 10:03:28;;;;;;;3.70;3.08;;;;;;;;;;10067289;28;20060;-55
2023/07/03 10:08:27;;;;;;;3.47;3.15;;;;;;;;;;10067478;28;20128;-54
2023/07/03 10:13:37;;;;;;;4.20;3.00;;;;;;;;;;10067480;28;20053;-55
2023/07/03 10:18:34;;;;;;;3.58;3.28;;;;;;;;;;10066359;28;20041;-54
2023/07/03 10:23:28;;;;;;;3.35;3.05;;;;;;;;;;10065865;28;20410;-54
2023/07/03 10:28:29;;;;;;;3.83;3.40;;;;;;;;;;10067413;28;20497;-55
2023/07/03 10:33:26;;;;;;;3.78;3.40;;;;;;;;;;10066761;28;20072;-54
2023/07/03 10:38:26;;;;;;;3.23;3.00;;;;;;;;;;10084783;28;20087;-54
2023/07/03 10:43:18;;;;;;;4.38;3.00;;;;;;;;;;10106646;28;20049;-54
2023/07/03 10:48:14;;;;;;;3.20;2.90;;;;;;;;;;10105688;28;20486;-54
2023/07/03 10:53:29;;;;;;;3.50;3.20;;;;;;;;;;10110540;28;20033;-54
2023/07/03 10:58:25;;;;;;;3.38;3.08;;;;;;;;;;10114228;28;20060;-54
2023/07/03 11:03:28;;;;;;;3.42;3.00;;;;;;;;;;10113865;28;20083;-55
2023/07/03 11:08:22;;;;;;;3.13;2.90;;;;;;;;;;10113601;28;20052;-54
2023/07/03 11:13:23;;;;;;;5.10;3.42;;;;;;;;;;10112464;28;20044;-52
2023/07/03 11:18:48;;;;;;;3.42;2.97;;;;;;;;;;10113427;28;20056;-51
2023/07/03 11:23:54;;;;;;;3.20;2.90;;;;;;;;;;10112897;28;20091;-53
2023/07/03 11:28:50;;;;;;;4.93;3.70;;;;;;;;;;10111853;28;20369;-55
2023/07/03 11:33:42;;;;;;;4.00;3.65;;;;;;;;;;10111766;28;20378;-53
2023/07/03 11:38:37;;;;;;;3.45;3.00;;;;;;;;;;10111294;28;20497;-54
2023/07/03 11:43:36;;;;;;;3.50;3.20;;;;;;;;;;10112535;28;20049;-54
2023/07/03 11:48:37;;;;;;;3.40;3.10;;;;;;;;;;10110642;28;20048;-54
2023/07/03 11:53:36;;;;;;;3.50;3.20;;;;;;;;;;10112174;28;20057;-54
2023/07/03 11:58:29;;;;;;;3.40;3.10;;;;;;;;;;10111847;28;20084;-55
2023/07/03 12:03:49;;;;;;;3.42;3.13;;;;;;;;;;10109768;28;20443;-54
2023/07/03 12:08:42;;;;;;;3.95;3.60;;;;;;;;;;10111840;28;20482;-54
2023/07/03 12:13:41;;;;;;;3.47;3.17;;;;;;;;;;10111447;28;20041;-54
2023/07/03 12:18:34;;;;;;;3.20;2.90;;;;;;;;;;10111015;28;20099;-54
2023/07/03 12:23:38;;;;;;;3.10;2.90;;;;;;;;;;10111046;28;20128;-55
2023/07/03 12:28:30;;;;;;;3.85;3.47;;;;;;;;;;10111007;28;20045;-53
2023/07/03 12:33:22;;;;;;;3.30;3.00;;;;;;;;;;10109658;28;20079;-55
2023/07/03 12:38:16;;;;;;;3.53;3.22;;;;;;;;;;10106184;28;20044;-55
2023/07/03 12:43:10;;;;;;;3.45;3.15;;;;;;;;;;10105608;28;20558;-54
2023/07/03 12:48:02;;;;;;;3.20;2.90;;;;;;;;;;10105008;28;20470;-54
2023/07/03 12:53:00;;;;;;;3.70;3.40;;;;;;;;;;10107461;28;20065;-47
2023/07/03 12:57:52;;;;;;;5.30;4.13;;;;;;;;;;10099787;28;20047;-54
2023/07/03 13:02:44;;;;;;;3.33;2.80;;;;;;;;;;10107864;28;20418;-55
2023/07/03 13:07:36;;;;;;;3.35;3.05;;;;;;;;;;10104647;28;20463;-55
2023/07/03 13:12:28;;;;;;;3.65;3.30;;;;;;;;;;10076941;28;20430;-54
2023/07/03 13:17:28;;;;;;;5.60;3.97;;;;;;;;;;10068693;28;20045;-54
2023/07/03 13:22:20;;;;;;;4.20;3.78;;;;;;;;;;10082262;28;20041;-52
2023/07/03 13:27:21;;;;;;;5.53;4.20;;;;;;;;;;10107553;28;20417;-55
2023/07/03 13:32:15;;;;;;;4.95;4.00;;;;;;;;;;10107872;28;20454;-53
2023/07/03 13:37:09;;;;;;;4.65;3.88;;;;;;;;;;10107084;28;20478;-54
2023/07/03 13:42:01;;;;;;;7.57;4.53;;;;;;;;;;10107402;28;20045;-54
2023/07/03 13:46:54;;;;;;;5.18;4.68;;;;;;;;;;10106574;28;20094;-54
2023/07/03 13:51:47;;;;;;;5.25;4.75;;;;;;;;;;10107140;28;20067;-54
2023/07/03 13:56:42;;;;;;;6.38;5.40;;;;;;;;;;10103895;28;20045;-54
2023/07/03 14:01:35;;;;;;;5.32;4.82;;;;;;;;;;10106124;28;20471;-53
2023/07/03 14:06:27;;;;;;;6.03;5.47;;;;;;;;;;10105168;28;20048;-55
2023/07/03 14:11:19;;;;;;;7.72;4.93;;;;;;;;;;10104987;28;20120;-55
2023/07/03 14:16:11;;;;;;;5.85;5.00;;;;;;;;;;10103194;28;20466;-54
2023/07/03 14:21:04;;;;;;;9.20;5.88;;;;;;;;;;10103880;28;20068;-54
2023/07/03 14:25:56;;;;;;;10.35;6.32;;;;;;;;;;10104077;28;20385;-54
2023/07/03 14:30:48;;;;;;;6.03;4.80;;;;;;;;;;10110361;28;20037;-55
2023/07/03 14:35:40;;;;;;;5.95;5.45;;;;;;;;;;10112180;28;20083;-54
2023/07/03 14:40:32;;;;;;;6.18;5.57;;;;;;;;;;10114166;28;20068;-55
2023/07/03 14:45:24;;;;;;;6.15;5.57;;;;;;;;;;10113069;28;20466;-55
2023/07/03 14:50:16;;;;;;;7.75;5.72;;;;;;;;;;10113600;28;20048;-54
2023/07/03 14:55:12;;;;;;;8.35;5.95;;;;;;;;;;10113797;28;20367;-52
2023/07/03 15:00:06;;;;;;;12.20;7.10;;;;;;;;;;10113283;28;20076;-54
2023/07/03 15:04:58;;;;;;;8.27;5.82;;;;;;;;;;10113338;28;20071;-54
2023/07/03 15:09:50;;;;;;;6.95;6.25;;;;;;;;;;10112397;28;20474;-54
2023/07/03 15:14:42;;;;;;;10.50;6.80;;;;;;;;;;10112670;28;20199;-55
2023/07/03 15:19:34;;;;;;;7.10;6.40;;;;;;;;;;10112660;28;20052;-54
2023/07/03 15:24:25;;;;;;;7.75;7.05;;;;;;;;;;10112523;28;20048;-55
2023/07/03 15:29:17;;;;;;;6.68;6.03;;;;;;;;;;10111915;28;20068;-54
2023/07/03 15:34:09;;;;;;;7.65;6.43;;;;;;;;;;10112585;28;20048;-54
2023/07/03 15:39:01;;;;;;;7.45;6.68;;;;;;;;;;10111785;28;20045;-55
2023/07/03 15:43:54;;;;;;;9.43;6.57;;;;;;;;;;10112147;28;20485;-55
2023/07/03 15:48:47;;;;;;;7.85;6.88;;;;;;;;;;10111071;28;20095;-54
2023/07/03 15:53:39;;;;;;;19.05;7.90;;;;;;;;;;10111456;28;20128;-54
2023/07/03 15:58:36;;;;;;;7.95;7.20;;;;;;;;;;10111380;28;20445;-54
2023/07/03 16:03:29;;;;;;;8.02;7.22;;;;;;;;;;10110916;28;20057;-55
2023/07/03 16:08:20;;;;;;;7.80;6.78;;;;;;;;;;10110996;28;20095;-54
2023/07/03 16:13:12;;;;;;;8.43;7.43;;;;;;;;;;10110982;28;20052;-53
2023/07/03 16:18:04;;;;;;;8.25;7.32;;;;;;;;;;10110279;28;20048;-54
2023/07/03 16:22:56;;;;;;;7.72;7.00;;;;;;;;;;10110172;28;20040;-54
2023/07/03 16:27:51;;;;;;;7.95;7.13;;;;;;;;;;10109315;28;20048;-55
2023/07/03 16:32:43;;;;;;;7.28;6.57;;;;;;;;;;10109369;28;20102;-54
2023/07/03 16:37:35;;;;;;;7.20;6.50;;;;;;;;;;10109049;28;20037;-55
2023/07/03 16:42:27;;;;;;;7.85;6.95;;;;;;;;;;10097579;28;20048;-54
2023/07/03 16:47:20;;;;;;;7.38;6.68;;;;;;;;;;10102229;28;20458;-55
2023/07/03 16:52:13;;;;;;;7.10;6.40;;;;;;;;;;10100302;28;20052;-52
2023/07/03 16:57:05;;;;;;;9.30;6.57;;;;;;;;;;10071471;28;20077;-51
2023/07/03 17:01:58;;;;;;;11.68;6.85;;;;;;;;;;10107121;28;20493;-54
2023/07/03 17:06:49;;;;;;;8.80;6.72;;;;;;;;;;10107368;28;20500;-55
2023/07/03 17:11:41;;;;;;;10.98;7.32;;;;;;;;;;10084147;28;20451;-54
2023/07/03 17:16:33;;;;;;;8.10;5.75;;;;;;;;;;10098436;28;20083;-55
2023/07/03 17:21:25;;;;;;;9.75;6.40;;;;;;;;;;10089667;28;20363;-55
2023/07/03 17:26:17;;;;;;;9.07;6.05;;;;;;;;;;10090030;28;20085;-55
2023/07/03 17:31:09;;;;;;;6.65;6.05;;;;;;;;;;10102671;28;20430;-55
2023/07/03 17:36:01;;;;;;;6.35;5.75;;;;;;;;;;10076727;28;20048;-54
2023/07/03 17:40:54;;;;;;;8.70;5.68;;;;;;;;;;10090291;28;20536;-54
2023/07/03 17:45:46;;;;;;;8.25;5.65;;;;;;;;;;10101003;28;20045;-55
2023/07/03 17:50:38;;;;;;;9.05;6.57;;;;;;;;;;10105077;28;20045;-55
2023/07/03 17:55:31;;;;;;;12.50;6.57;;;;;;;;;;10107274;28;20471;-55
2023/07/03 18:00:23;;;;;;;13.07;5.47;;;;;;;;;;10106209;28;20090;-54
2023/07/03 18:05:15;;;;;;;13.02;7.70;;;;;;;;;;10101881;28;20053;-54
2023/07/03 18:10:08;;;;;;;13.55;5.80;;;;;;;;;;10093817;28;20037;-54
2023/07/03 18:15:00;;;;;;;11.80;4.85;;;;;;;;;;10105225;28;20041;-55
2023/07/03 18:19:52;;;;;;;8.52;6.63;;;;;;;;;;10123025;28;20040;-54
2023/07/03 18:24:44;;;;;;;10.63;5.68;;;;;;;;;;10143635;28;20068;-55
2023/07/03 18:29:36;;;;;;;10.65;5.90;;;;;;;;;;10098774;28;20045;-55
2023/07/03 18:34:28;;;;;;;15.70;6.53;;;;;;;;;;10099529;28;20049;-55
2023/07/03 18:39:19;;;;;;;12.77;7.63;;;;;;;;;;10099659;28;20048;-55
2023/07/03 18:44:11;;;;;;;11.63;6.82;;;;;;;;;;10105606;28;20447;-55
2023/07/03 18:49:03;;;;;;;9.27;6.07;;;;;;;;;;10106247;28;20092;-55
2023/07/03 18:53:55;;;;;;;12.38;6.10;;;;;;;;;;10100896;28;20437;-55
2023/07/03 18:58:48;;;;;;;10.02;5.75;;;;;;;;;;10104700;28;20131;-54
2023/07/03 19:03:40;;;;;;;11.73;6.07;;;;;;;;;;10121948;28;20526;-55
2023/07/03 19:08:32;;;;;;;12.23;5.80;;;;;;;;;;10137333;28;20040;-55
2023/07/03 19:13:24;;;;;;;12.20;6.32;;;;;;;;;;10139417;28;20048;-55
2023/07/03 19:18:16;;;;;;;15.30;8.07;;;;;;;;;;10143268;28;20037;-56
2023/07/03 19:23:08;;;;;;;8.98;6.53;;;;;;;;;;10145056;28;20102;-55
2023/07/03 19:28:00;;;;;;;8.43;6.63;;;;;;;;;;10090217;28;20044;-55
2023/07/03 19:32:52;;;;;;;7.70;5.32;;;;;;;;;;10120890;28;20048;-55
2023/07/03 19:37:48;;;;;;;10.63;6.75;;;;;;;;;;10112275;28;20091;-55
2023/07/03 19:42:40;;;;;;;10.48;6.80;;;;;;;;;;10113478;28;20037;-55
2023/07/03 19:47:32;;;;;;;8.57;5.05;;;;;;;;;;10105259;28;20553;-56
2023/07/03 19:52:25;;;;;;;10.57;6.15;;;;;;;;;;10111114;28;20099;-55
2023/07/03 19:57:17;;;;;;;8.82;5.07;;;;;;;;;;10090669;28;20124;-54
2023/07/03 20:02:09;;;;;;;7.43;5.22;;;;;;;;;;10094093;28;20162;-56
2023/07/03 20:07:02;;;;;;;8.77;4.80;;;;;;;;;;10111053;28;20080;-55
2023/07/03 20:11:54;;;;;;;9.00;5.18;;;;;;;;;;10110684;28;20048;-55
2023/07/03 20:16:46;;;;;;;7.95;4.72;;;;;;;;;;10110415;28;20051;-56
2023/07/03 20:21:38;;;;;;;6.15;4.40;;;;;;;;;;10110437;28;20045;-55
2023/07/03 20:26:31;;;;;;;7.00;4.55;;;;;;;;;;10109707;28;20379;-55
2023/07/03 20:31:23;;;;;;;9.00;4.40;;;;;;;;;;10109316;28;20045;-53
2023/07/03 20:36:15;;;;;;;7.53;4.82;;;;;;;;;;10109013;28;20064;-55
2023/07/03 20:41:13;;;;;;;10.13;4.80;;;;;;;;;;10119755;28;20049;-55
2023/07/03 20:46:10;;;;;;;9.10;5.10;;;;;;;;;;10101651;28;20072;-55
2023/07/03 20:51:04;;;;;;;10.65;5.32;;;;;;;;;;10069897;28;20041;-55
2023/07/03 20:56:10;;;;;;;9.52;4.50;;;;;;;;;;10108451;28;20044;-55
2023/07/03 21:01:15;;;;;;;5.32;3.88;;;;;;;;;;10082047;28;20416;-54
2023/07/03 21:06:18;;;;;;;4.22;3.75;;;;;;;;;;10127526;28;20045;-48
2023/07/03 21:11:12;;;;;;;5.45;4.07;;;;;;;;;;10104722;28;20052;-49
2023/07/03 21:16:04;;;;;;;15.35;5.88;;;;;;;;;;10104350;28;20066;-51
2023/07/03 21:20:55;;;;;;;7.78;4.95;;;;;;;;;;10105152;28;20039;-50
2023/07/03 21:25:47;;;;;;;9.98;7.50;;;;;;;;;;10107221;28;20094;-51
2023/07/03 21:30:42;;;;;;;9.40;8.38;;;;;;;;;;10107998;28;20052;-51
2023/07/03 21:35:34;;;;;;;8.80;7.93;;;;;;;;;;10106512;28;20052;-51
2023/07/03 21:40:28;;;;;;;10.00;8.77;;;;;;;;;;10108052;28;20127;-50
2023/07/03 21:45:19;;;;;;;9.38;6.65;;;;;;;;;;10105055;28;20048;-48
2023/07/03 21:50:11;;;;;;;11.52;5.93;;;;;;;;;;10105112;28;20431;-58
2023/07/03 21:55:04;;;;;;;8.48;6.32;;;;;;;;;;10104384;28;20382;-48
2023/07/03 21:59:56;;;;;;;6.80;5.05;;;;;;;;;;10103900;28;20052;-51
2023/07/03 22:04:47;;;;;;;6.40;4.20;;;;;;;;;;10090398;28;20045;-51
2023/07/03 22:09:39;;;;;;;8.48;3.63;;;;;;;;;;10096447;28;20044;-55
2023/07/03 22:14:31;;;;;;;5.00;3.45;;;;;;;;;;10093893;28;20055;-54
2023/07/03 22:19:23;;;;;;;5.30;3.20;;;;;;;;;;10099964;28;20052;-54
2023/07/03 22:24:15;;;;;;;4.00;3.20;;;;;;;;;;10100894;28;20056;-51
2023/07/03 22:29:07;;;;;;;4.20;2.40;;;;;;;;;;10067468;28;20762;-55
2023/07/03 22:33:59;;;;;;;7.55;3.22;;;;;;;;;;10084973;28;20045;-54
2023/07/03 22:38:51;;;;;;;6.35;2.88;;;;;;;;;;10099511;28;20681;-54
2023/07/03 22:43:44;;;;;;;4.93;2.83;;;;;;;;;;10072681;28;20052;-54
2023/07/03 22:48:39;;;;;;;8.57;2.83;;;;;;;;;;10105842;28;20059;-54
2023/07/03 22:53:31;;;;;;;5.93;2.65;;;;;;;;;;10110379;28;20098;-56
2023/07/03 22:58:23;;;;;;;3.17;2.55;;;;;;;;;;10104332;28;20565;-53
2023/07/03 23:03:15;;;;;;;2.97;2.65;;;;;;;;;;10105413;28;20518;-54
2023/07/03 23:08:07;;;;;;;4.53;2.20;;;;;;;;;;10106801;28;20040;-54
2023/07/03 23:12:59;;;;;;;4.18;2.67;;;;;;;;;;10105983;28;20044;-57
2023/07/03 23:17:51;;;;;;;6.28;3.20;;;;;;;;;;10104667;28;20079;-56
2023/07/03 23:22:43;;;;;;;8.95;2.53;;;;;;;;;;10101094;28;20029;-54
2023/07/03 23:27:34;;;;;;;8.82;2.03;;;;;;;;;;10104867;28;20060;-53
2023/07/03 23:32:27;;;;;;;4.35;2.50;;;;;;;;;;10104007;28;20037;-53
2023/07/03 23:37:20;;;;;;;8.23;3.40;;;;;;;;;;10108241;28;20072;-52
2023/07/03 23:42:15;;;;;;;7.07;2.35;;;;;;;;;;10107743;28;20045;-56
2023/07/03 23:47:07;;;;;;;7.97;2.13;;;;;;;;;;10107998;28;20080;-57
2023/07/03 23:52:00;;;;;;;3.17;2.10;;;;;;;;;;10109667;28;20045;-56
2023/07/03 23:56:51;;;;;;;5.80;2.17;;;;;;;;;;10108166;28;20049;-57
